createdAt,value
2023-03-21T00:00:28.896Z,101212.66
2023-03-21T00:02:55.448Z,101220.59
2023-03-21T00:05:22.449Z,101216.25
2023-03-21T00:07:49.030Z,101221.78
2023-03-21T00:10:23.910Z,101226.22
2023-03-21T00:12:58.583Z,101222.59
2023-03-21T00:18:13.655Z,101219.81
2023-03-21T00:20:40.084Z,101218.72
2023-03-21T00:23:06.526Z,101214.09
2023-03-21T00:25:33.102Z,101217.41
2023-03-21T00:28:08.059Z,101213.59
2023-03-21T00:30:35.358Z,101211.13
2023-03-21T00:33:08.946Z,101212.22
2023-03-21T00:36:06.108Z,101213.69
2023-03-21T00:38:31.241Z,101202.69
2023-03-21T00:41:01.958Z,101203.94
2023-03-21T00:43:32.796Z,101200.72
2023-03-21T00:45:59.824Z,101199.13
2023-03-21T00:48:27.277Z,101202.94
2023-03-21T00:50:57.149Z,101205.25
2023-03-21T00:53:24.168Z,101198.16
2023-03-21T00:55:51.653Z,101187.91
2023-03-21T00:58:18.455Z,101182.28
2023-03-21T01:00:47.048Z,101179.72
2023-03-21T01:03:24.308Z,101172.41
2023-03-21T01:06:07.367Z,101181.63
2023-03-21T01:08:51.256Z,101178.31
2023-03-21T01:11:24.946Z,101171.06
2023-03-21T01:13:58.004Z,101182.28
2023-03-21T01:16:31.562Z,101171.72
2023-03-21T01:18:58.235Z,101168.09
2023-03-21T01:21:24.706Z,101166.59
2023-03-21T01:23:51.174Z,101163.72
2023-03-21T01:26:18.210Z,101157.25
2023-03-21T01:28:45.405Z,101154.69
2023-03-21T01:31:13.816Z,101153.97
2023-03-21T01:33:41.246Z,101146.19
2023-03-21T01:36:13.249Z,101148.00
2023-03-21T01:38:41.559Z,101145.78
2023-03-21T01:41:18.759Z,101142.97
2023-03-21T01:43:46.141Z,101147.41
2023-03-21T01:46:37.274Z,101139.19
2023-03-21T01:49:26.061Z,101140.38
2023-03-21T01:52:01.110Z,101131.50
2023-03-21T01:54:34.254Z,101127.69
2023-03-21T01:57:03.687Z,101136.03
2023-03-21T01:59:40.773Z,101126.63
2023-03-21T02:02:12.328Z,101129.28
2023-03-21T02:04:39.187Z,101126.94
2023-03-21T02:07:16.753Z,101128.19
2023-03-21T02:09:47.461Z,101121.66
2023-03-21T02:12:16.149Z,101120.19
2023-03-21T02:14:43.084Z,101111.25
2023-03-21T02:17:39.152Z,101113.16
2023-03-21T02:20:42.117Z,101111.03
2023-03-21T02:23:28.728Z,101118.72
2023-03-21T02:26:40.864Z,101104.84
2023-03-21T02:29:40.854Z,101106.16
2023-03-21T02:32:28.393Z,101111.59
2023-03-21T02:35:24.632Z,101100.75
2023-03-21T02:38:00.688Z,101097.47
2023-03-21T02:40:45.381Z,101095.16
2023-03-21T02:43:24.350Z,101096.72
2023-03-21T02:45:57.955Z,101097.38
2023-03-21T02:48:52.771Z,101100.59
2023-03-21T02:51:23.261Z,101097.34
2023-03-21T02:54:22.007Z,101087.19
2023-03-21T02:56:43.102Z,101097.78
2023-03-21T02:59:10.439Z,101096.25
2023-03-21T03:01:36.926Z,101099.78
2023-03-21T03:04:03.452Z,101093.59
2023-03-21T03:06:48.700Z,101096.13
2023-03-21T03:09:30.763Z,101090.88
2023-03-21T03:12:12.462Z,101094.72
2023-03-21T03:15:03.585Z,101086.03
2023-03-21T03:17:51.918Z,101086.44
2023-03-21T03:20:55.853Z,101091.72
2023-03-21T03:23:41.986Z,101078.72
2023-03-21T03:26:16.206Z,101080.31
2023-03-21T03:28:48.527Z,101078.72
2023-03-21T03:31:21.810Z,101082.44
2023-03-21T03:33:52.130Z,101084.94
2023-03-21T03:36:31.727Z,101088.25
2023-03-21T03:39:04.353Z,101083.47
2023-03-21T03:42:00.860Z,101090.94
2023-03-21T03:44:19.758Z,101091.47
2023-03-21T03:47:08.480Z,101103.94
2023-03-21T03:50:03.299Z,101103.34
2023-03-21T03:52:40.043Z,101101.13
2023-03-21T03:55:13.266Z,101094.97
2023-03-21T03:57:40.154Z,101097.94
2023-03-21T04:00:13.207Z,101100.88
2023-03-21T04:02:39.654Z,101096.16
2023-03-21T04:05:06.500Z,101091.25
2023-03-21T04:07:32.988Z,101102.41
2023-03-21T04:09:59.731Z,101099.78
2023-03-21T04:12:26.292Z,101091.22
2023-03-21T04:14:53.341Z,101095.03
2023-03-21T04:17:21.456Z,101089.16
2023-03-21T04:19:47.933Z,101082.53
2023-03-21T04:22:14.375Z,101084.38
2023-03-21T04:24:41.292Z,101076.00
2023-03-21T04:27:07.736Z,101082.25
2023-03-21T04:29:34.201Z,101083.81
2023-03-21T04:32:01.384Z,101088.25
2023-03-21T04:34:28.865Z,101088.34
2023-03-21T04:36:55.903Z,101096.38
2023-03-21T04:39:24.474Z,101087.19
2023-03-21T04:41:51.099Z,101091.59
2023-03-21T04:44:18.381Z,101099.50
2023-03-21T04:46:44.849Z,101092.56
2023-03-21T04:49:11.414Z,101089.81
2023-03-21T04:51:38.835Z,101084.69
2023-03-21T04:54:05.900Z,101085.41
2023-03-21T04:56:33.838Z,101089.72
2023-03-21T04:59:03.452Z,101093.88
2023-03-21T05:01:30.823Z,101086.91
2023-03-21T05:04:01.689Z,101088.22
2023-03-21T05:06:28.458Z,101092.84
2023-03-21T05:08:59.983Z,101104.09
2023-03-21T05:11:27.720Z,101088.97
2023-03-21T05:13:56.293Z,101096.38
2023-03-21T05:16:26.820Z,101098.53
2023-03-21T05:18:54.807Z,101094.16
2023-03-21T05:21:22.844Z,101104.09
2023-03-21T05:23:55.459Z,101104.09
2023-03-21T05:26:23.159Z,101105.19
2023-03-21T05:28:50.138Z,101100.66
2023-03-21T05:31:18.402Z,101099.25
2023-03-21T05:33:51.141Z,101110.06
2023-03-21T05:36:17.651Z,101109.81
2023-03-21T05:38:46.609Z,101112.56
2023-03-21T05:41:14.207Z,101107.22
2023-03-21T05:43:41.058Z,101112.56
2023-03-21T05:46:08.172Z,101110.34
2023-03-21T05:48:35.649Z,101112.72
2023-03-21T05:51:05.989Z,101115.22
2023-03-21T05:53:32.499Z,101113.53
2023-03-21T05:55:59.027Z,101118.59
2023-03-21T05:58:25.818Z,101110.22
2023-03-21T06:00:52.257Z,101118.34
2023-03-21T06:03:18.791Z,101120.59
2023-03-21T06:05:45.268Z,101114.63
2023-03-21T06:08:11.751Z,101112.81
2023-03-21T06:10:38.254Z,101113.19
2023-03-21T06:13:04.955Z,101115.34
2023-03-21T06:15:31.610Z,101116.25
2023-03-21T06:17:58.083Z,101111.50
2023-03-21T06:20:24.515Z,101118.56
2023-03-21T06:22:51.025Z,101122.13
2023-03-21T06:25:17.531Z,101117.22
2023-03-21T06:27:44.148Z,101120.66
2023-03-21T06:30:11.204Z,101124.09
2023-03-21T06:32:37.761Z,101125.13
2023-03-21T06:35:04.963Z,101119.03
2023-03-21T06:37:31.554Z,101120.44
2023-03-21T06:39:58.031Z,101129.88
2023-03-21T06:42:24.689Z,101128.22
2023-03-21T06:44:51.196Z,101121.88
2023-03-21T06:47:17.721Z,101123.25
2023-03-21T06:49:44.681Z,101128.94
2023-03-21T06:52:11.539Z,101127.88
2023-03-21T06:54:38.137Z,101121.31
2023-03-21T06:57:05.626Z,101129.69
2023-03-21T06:59:32.091Z,101121.72
2023-03-21T07:01:58.962Z,101124.25
2023-03-21T07:04:27.019Z,101123.13
2023-03-21T07:06:53.912Z,101128.94
2023-03-21T07:09:24.439Z,101133.84
2023-03-21T07:11:53.574Z,101134.88
2023-03-21T07:14:20.358Z,101129.31
2023-03-21T07:16:47.216Z,101136.47
2023-03-21T07:19:14.139Z,101122.06
2023-03-21T07:21:40.976Z,101132.50
2023-03-21T07:24:07.981Z,101133.03
2023-03-21T07:26:34.407Z,101127.63
2023-03-21T07:29:00.903Z,101127.66
2023-03-21T07:31:27.501Z,101134.03
2023-03-21T07:33:53.998Z,101125.47
2023-03-21T07:36:21.658Z,101129.28
2023-03-21T07:38:48.208Z,101135.16
2023-03-21T07:43:46.076Z,101123.22
2023-03-21T07:46:12.729Z,101127.19
2023-03-21T07:48:39.259Z,101128.69
2023-03-21T07:51:06.572Z,101131.41
2023-03-21T07:53:33.207Z,101132.31
2023-03-21T07:55:59.679Z,101135.63
2023-03-21T07:58:27.183Z,101141.22
2023-03-21T08:00:53.969Z,101143.94
2023-03-21T08:03:20.453Z,101134.22
2023-03-21T08:05:47.333Z,101134.38
2023-03-21T08:08:13.909Z,101136.59
2023-03-21T08:10:43.255Z,101137.03
2023-03-21T08:13:09.998Z,101142.47
2023-03-21T08:15:37.614Z,101128.41
2023-03-21T08:18:04.292Z,101125.59
2023-03-21T08:20:30.971Z,101123.16
2023-03-21T08:22:57.502Z,101127.53
2023-03-21T08:25:24.003Z,101119.25
2023-03-21T08:27:51.550Z,101119.28
2023-03-21T08:30:21.943Z,101116.38
2023-03-21T08:32:49.365Z,101125.22
2023-03-21T08:35:17.842Z,101124.31
2023-03-21T08:37:44.914Z,101123.44
2023-03-21T08:40:14.242Z,101120.09
2023-03-21T08:42:41.428Z,101126.22
2023-03-21T08:45:09.195Z,101117.78
2023-03-21T08:47:37.069Z,101119.03
2023-03-21T08:50:06.820Z,101120.13
2023-03-21T08:52:33.989Z,101116.94
2023-03-21T08:55:02.148Z,101115.56
2023-03-21T08:57:29.569Z,101120.78
2023-03-21T08:59:56.437Z,101123.97
2023-03-21T09:02:23.021Z,101127.09
2023-03-21T09:04:49.778Z,101131.88
2023-03-21T09:07:18.070Z,101125.03
2023-03-21T09:09:45.941Z,101130.09
2023-03-21T09:12:14.213Z,101130.25
2023-03-21T09:14:41.197Z,101128.25
2023-03-21T09:17:07.788Z,101128.28
2023-03-21T09:19:34.888Z,101129.06
2023-03-21T09:22:03.564Z,101133.97
2023-03-21T09:24:30.639Z,101129.09
2023-03-21T09:26:58.079Z,101127.69
2023-03-21T09:29:25.062Z,101129.34
2023-03-21T09:31:53.516Z,101135.03
2023-03-21T09:34:20.129Z,101135.59
2023-03-21T09:36:48.450Z,101131.03
2023-03-21T09:39:16.378Z,101125.75
2023-03-21T09:42:17.672Z,101124.06
2023-03-21T09:44:52.738Z,101126.78
2023-03-21T09:47:34.997Z,101120.94
2023-03-21T09:50:14.106Z,101115.75
2023-03-21T09:52:48.205Z,101117.25
2023-03-21T09:55:19.172Z,101114.72
2023-03-21T09:58:12.263Z,101115.75
2023-03-21T10:00:42.081Z,101115.06
2023-03-21T10:03:26.322Z,101108.06
2023-03-21T10:05:58.749Z,101104.09
2023-03-21T10:08:32.039Z,101108.59
2023-03-21T10:11:05.214Z,101106.00
2023-03-21T10:13:41.617Z,101102.69
2023-03-21T10:16:16.014Z,101108.13
2023-03-21T10:18:44.095Z,101113.56
2023-03-21T10:21:47.437Z,101109.09
2023-03-21T10:24:17.386Z,101105.97
2023-03-21T10:26:45.898Z,101108.56
2023-03-21T10:29:18.682Z,101097.19
2023-03-21T10:31:47.337Z,101093.53
2023-03-21T10:34:26.153Z,101099.78
2023-03-21T10:36:53.103Z,101094.63
2023-03-21T10:39:28.024Z,101098.34
2023-03-21T10:41:54.791Z,101090.94
2023-03-21T10:44:21.424Z,101087.78
2023-03-21T10:46:57.641Z,101093.38
2023-03-21T10:49:26.686Z,101089.75
2023-03-21T10:51:59.620Z,101082.88
2023-03-21T10:54:30.244Z,101078.56
2023-03-21T10:57:06.024Z,101072.31
2023-03-21T10:59:42.945Z,101070.50
2023-03-21T11:02:19.589Z,101069.34
2023-03-21T11:04:46.406Z,101069.59
2023-03-21T11:07:15.219Z,101065.53
2023-03-21T11:09:53.799Z,101074.63
2023-03-21T11:12:34.812Z,101067.22
2023-03-21T11:15:27.237Z,101064.69
2023-03-21T11:17:53.741Z,101060.16
2023-03-21T11:20:21.170Z,101061.66
2023-03-21T11:22:49.364Z,101061.38
2023-03-21T11:25:41.185Z,101051.31
2023-03-21T11:28:24.070Z,101047.84
2023-03-21T11:31:02.785Z,101045.50
2023-03-21T11:33:44.341Z,101048.75
2023-03-21T11:36:16.876Z,101045.16
2023-03-21T11:38:43.470Z,101044.84
2023-03-21T11:41:23.003Z,101037.69
2023-03-21T11:43:53.427Z,101035.91
2023-03-21T11:46:25.616Z,101024.03
2023-03-21T11:48:52.949Z,101028.44
2023-03-21T11:51:24.615Z,101029.31
2023-03-21T11:54:09.385Z,101025.34
2023-03-21T11:56:42.628Z,101019.63
2023-03-21T11:59:39.523Z,101017.50
2023-03-21T12:02:43.631Z,101008.97
2023-03-21T12:05:21.479Z,101002.38
2023-03-21T12:07:47.908Z,100997.78
2023-03-21T12:10:23.302Z,100993.56
2023-03-21T12:12:58.852Z,100991.59
2023-03-21T12:15:35.818Z,100984.66
2023-03-21T12:18:11.340Z,100976.75
2023-03-21T12:20:54.492Z,100971.41
2023-03-21T12:23:40.042Z,100971.94
2023-03-21T12:26:28.920Z,100970.13
2023-03-21T12:29:12.082Z,100965.03
2023-03-21T12:32:04.735Z,100959.78
2023-03-21T12:34:40.659Z,100956.34
2023-03-21T12:37:20.789Z,100948.22
2023-03-21T12:39:49.029Z,100938.53
2023-03-21T12:42:24.451Z,100940.19
2023-03-21T12:45:06.053Z,100936.19
2023-03-21T12:47:35.733Z,100927.06
2023-03-21T12:50:08.268Z,100923.16
2023-03-21T12:52:41.671Z,100914.78
2023-03-21T12:55:17.779Z,100909.22
2023-03-21T12:58:00.462Z,100903.78
2023-03-21T13:00:43.417Z,100897.59
2023-03-21T13:03:27.646Z,100897.06
2023-03-21T13:06:09.234Z,100893.75
2023-03-21T13:08:38.251Z,100884.66
2023-03-21T13:11:07.553Z,100881.25
2023-03-21T13:13:39.887Z,100882.44
2023-03-21T13:16:06.569Z,100881.34
2023-03-21T13:18:48.812Z,100877.75
2023-03-21T13:21:18.239Z,100873.97
2023-03-21T13:24:01.331Z,100875.75
2023-03-21T13:26:38.914Z,100872.22
2023-03-21T13:29:32.702Z,100868.16
2023-03-21T13:32:30.832Z,100864.00
2023-03-21T13:35:17.292Z,100856.22
2023-03-21T13:37:52.684Z,100855.31
2023-03-21T13:40:35.122Z,100862.13
2023-03-21T13:43:03.688Z,100851.38
2023-03-21T13:45:45.419Z,100846.47
2023-03-21T13:48:30.138Z,100846.41
2023-03-21T13:51:02.218Z,100841.13
2023-03-21T13:54:00.514Z,100842.03
2023-03-21T13:56:27.274Z,100831.31
2023-03-21T13:58:58.698Z,100825.16
2023-03-21T14:01:48.400Z,100823.78
2023-03-21T14:04:19.226Z,100817.63
2023-03-21T14:06:54.108Z,100821.97
2023-03-21T14:09:40.595Z,100814.22
2023-03-21T14:12:21.194Z,100810.41
2023-03-21T14:14:52.340Z,100808.28
2023-03-21T14:17:27.873Z,100814.81
2023-03-21T14:19:56.702Z,100803.16
2023-03-21T14:22:23.681Z,100803.81
2023-03-21T14:25:01.314Z,100803.34
2023-03-21T14:27:33.981Z,100801.72
2023-03-21T14:30:01.974Z,100793.28
2023-03-21T14:32:30.773Z,100788.53
2023-03-21T14:35:01.068Z,100783.31
2023-03-21T14:37:30.315Z,100777.63
2023-03-21T14:40:11.404Z,100780.13
2023-03-21T14:42:38.257Z,100775.94
2023-03-21T14:45:15.981Z,100772.34
2023-03-21T14:48:04.085Z,100770.72
2023-03-21T14:50:39.558Z,100771.09
2023-03-21T14:53:11.808Z,100768.13
2023-03-21T14:55:47.824Z,100763.72
2023-03-21T14:58:17.922Z,100775.09
2023-03-21T15:00:49.579Z,100765.03
2023-03-21T15:03:18.685Z,100757.09
2023-03-21T15:05:46.089Z,100759.09
2023-03-21T15:08:12.639Z,100755.81
2023-03-21T15:10:39.324Z,100757.22
2023-03-21T15:13:19.494Z,100756.94
2023-03-21T15:15:47.010Z,100760.44
2023-03-21T15:18:19.895Z,100761.81
2023-03-21T15:20:50.062Z,100753.84
2023-03-21T15:23:28.797Z,100753.84
2023-03-21T15:25:55.660Z,100759.09
2023-03-21T15:28:22.507Z,100751.19
2023-03-21T15:30:51.180Z,100740.97
2023-03-21T15:33:19.184Z,100747.66
2023-03-21T15:35:59.202Z,100745.50
2023-03-21T15:38:45.063Z,100755.50
2023-03-21T15:41:20.773Z,100747.03
2023-03-21T15:43:48.415Z,100751.78
2023-03-21T15:46:33.475Z,100747.03
2023-03-21T15:49:17.084Z,100744.31
2023-03-21T15:51:53.810Z,100746.03
2023-03-21T15:54:24.777Z,100745.03
2023-03-21T15:56:56.690Z,100746.47
2023-03-21T15:59:31.402Z,100747.84
2023-03-21T16:01:58.320Z,100740.97
2023-03-21T16:04:25.865Z,100739.97
2023-03-21T16:06:58.739Z,100740.06
2023-03-21T16:09:26.334Z,100737.44
2023-03-21T16:11:57.062Z,100734.50
2023-03-21T16:14:27.806Z,100739.59
2023-03-21T16:16:54.912Z,100737.09
2023-03-21T16:19:21.294Z,100733.28
2023-03-21T16:21:47.809Z,100736.53
2023-03-21T16:24:14.538Z,100740.63
2023-03-21T16:26:48.040Z,100734.25
2023-03-21T16:29:15.910Z,100734.03
2023-03-21T16:31:42.593Z,100725.94
2023-03-21T16:34:09.292Z,100724.69
2023-03-21T16:36:38.702Z,100732.22
2023-03-21T16:39:28.722Z,100728.09
2023-03-21T16:41:55.214Z,100720.69
2023-03-21T16:44:22.107Z,100723.59
2023-03-21T16:46:49.596Z,100719.00
2023-03-21T16:49:27.487Z,100728.50
2023-03-21T16:51:56.575Z,100728.03
2023-03-21T16:54:23.243Z,100726.13
2023-03-21T16:56:53.262Z,100731.03
2023-03-21T16:59:20.017Z,100731.44
2023-03-21T17:01:48.276Z,100731.91
2023-03-21T17:04:17.401Z,100732.50
2023-03-21T17:06:47.017Z,100729.63
2023-03-21T17:09:16.292Z,100732.03
2023-03-21T17:11:43.596Z,100735.91
2023-03-21T17:14:11.439Z,100735.72
2023-03-21T17:16:40.278Z,100733.72
2023-03-21T17:19:18.990Z,100738.09
2023-03-21T17:22:25.997Z,100738.72
2023-03-21T17:24:52.900Z,100741.19
2023-03-21T17:27:19.428Z,100748.88
2023-03-21T17:29:45.928Z,100737.16
2023-03-21T17:32:12.414Z,100740.16
2023-03-21T17:34:38.985Z,100745.84
2023-03-21T17:37:05.911Z,100741.13
2023-03-21T17:39:33.007Z,100738.91
2023-03-21T17:41:59.456Z,100738.69
2023-03-21T17:44:26.058Z,100747.03
2023-03-21T17:46:52.610Z,100751.34
2023-03-21T17:49:19.894Z,100750.22
2023-03-21T17:51:46.992Z,100743.81
2023-03-21T17:54:13.966Z,100743.97
2023-03-21T17:56:41.741Z,100741.34
2023-03-21T17:59:12.314Z,100741.09
2023-03-21T18:01:38.971Z,100744.50
2023-03-21T18:04:05.989Z,100745.84
2023-03-21T18:06:34.213Z,100745.44
2023-03-21T18:09:04.312Z,100743.22
2023-03-21T18:11:30.942Z,100741.41
2023-03-21T18:14:10.262Z,100742.22
2023-03-21T18:16:42.331Z,100750.75
2023-03-21T18:19:10.980Z,100758.34
2023-03-21T18:21:40.497Z,100757.19
2023-03-21T18:24:07.523Z,100757.19
2023-03-21T18:26:34.151Z,100752.81
2023-03-21T18:30:03.827Z,100750.91
2023-03-21T18:32:02.486Z,100750.69
2023-03-21T18:34:32.035Z,100756.34
2023-03-21T18:36:58.495Z,100761.19
2023-03-21T18:39:25.198Z,100766.94
2023-03-21T18:41:52.530Z,100760.19
2023-03-21T18:44:19.689Z,100767.41
2023-03-21T18:46:48.038Z,100765.59
2023-03-21T18:49:58.947Z,100765.16
2023-03-21T18:52:02.470Z,100770.28
2023-03-21T18:54:28.895Z,100770.97
2023-03-21T18:59:42.495Z,100773.78
2023-03-21T19:02:11.579Z,100773.91
2023-03-21T19:04:38.380Z,100776.28
2023-03-21T19:07:05.658Z,100773.56
2023-03-21T19:09:54.802Z,100779.53
2023-03-21T19:12:20.114Z,100773.22
2023-03-21T19:14:46.577Z,100776.50
2023-03-21T19:20:00.006Z,100781.94
2023-03-21T19:22:29.331Z,100778.81
2023-03-21T19:24:56.044Z,100781.19
2023-03-21T19:27:22.859Z,100778.13
2023-03-21T19:30:06.553Z,100781.50
2023-03-21T19:32:35.991Z,100790.28
2023-03-21T19:35:02.794Z,100789.38
2023-03-21T19:37:29.355Z,100791.47
2023-03-21T19:39:56.694Z,100790.69
2023-03-21T19:42:28.544Z,100790.00
2023-03-21T19:44:57.000Z,100790.69
2023-03-21T19:47:23.409Z,100798.53
2023-03-21T19:50:43.991Z,100802.19
2023-03-21T19:52:38.110Z,100795.47
2023-03-21T19:55:05.189Z,100795.34
2023-03-21T19:57:31.808Z,100795.03
2023-03-21T19:59:58.287Z,100796.66
2023-03-21T20:02:35.541Z,100798.13
2023-03-21T20:05:02.338Z,100795.53
2023-03-21T20:07:30.599Z,100801.38
2023-03-21T20:09:57.531Z,100801.34
2023-03-21T20:12:24.108Z,100809.28
2023-03-21T20:14:56.020Z,100807.63
2023-03-21T20:17:28.036Z,100809.13
2023-03-21T20:19:57.850Z,100804.06
2023-03-21T20:22:46.008Z,100800.72
2023-03-21T20:25:11.572Z,100805.66
2023-03-21T20:27:42.400Z,100807.59
2023-03-21T20:30:14.999Z,100815.19
2023-03-21T20:32:44.186Z,100812.22
2023-03-21T20:35:21.032Z,100807.88
2023-03-21T20:37:53.950Z,100808.41
2023-03-21T20:40:21.420Z,100811.22
2023-03-21T20:42:48.827Z,100819.53
2023-03-21T20:45:17.125Z,100812.56
2023-03-21T20:47:43.723Z,100817.22
2023-03-21T20:50:13.800Z,100816.84
2023-03-21T20:53:06.531Z,100826.19
2023-03-21T20:55:28.768Z,100819.63
2023-03-21T20:57:55.210Z,100816.13
2023-03-21T21:00:22.316Z,100824.78
2023-03-21T21:02:50.096Z,100817.56
2023-03-21T21:05:28.694Z,100821.84
2023-03-21T21:07:56.638Z,100817.06
2023-03-21T21:10:23.232Z,100819.94
2023-03-21T21:12:49.694Z,100820.16
2023-03-21T21:15:16.859Z,100825.84
2023-03-21T21:18:04.884Z,100826.88
2023-03-21T21:20:53.409Z,100828.47
2023-03-21T21:23:19.827Z,100830.44
2023-03-21T21:25:53.196Z,100823.19
2023-03-21T21:28:23.937Z,100830.31
2023-03-21T21:31:00.801Z,100826.72
2023-03-21T21:33:30.247Z,100824.94
2023-03-21T21:35:56.824Z,100823.75
2023-03-21T21:38:23.420Z,100821.81
2023-03-21T21:40:51.648Z,100817.28
2023-03-21T21:43:19.409Z,100820.66
2023-03-21T21:45:46.919Z,100818.72
2023-03-21T21:48:13.839Z,100811.00
2023-03-21T21:50:43.781Z,100811.47
2023-03-21T21:53:11.489Z,100811.38
2023-03-21T21:55:38.568Z,100817.31
2023-03-21T21:58:08.459Z,100813.47
2023-03-21T22:00:37.211Z,100810.59
2023-03-21T22:03:04.303Z,100808.69
2023-03-21T22:05:31.326Z,100808.56
2023-03-21T22:07:58.209Z,100816.03
2023-03-21T22:10:27.617Z,100817.59
2023-03-21T22:12:54.292Z,100811.78
2023-03-21T22:15:23.809Z,100817.59
2023-03-21T22:17:51.463Z,100823.00
2023-03-21T22:20:20.421Z,100821.94
2023-03-21T22:22:47.591Z,100826.16
2023-03-21T22:25:15.960Z,100829.50
2023-03-21T22:27:43.537Z,100829.34
2023-03-21T22:30:13.880Z,100829.19
2023-03-21T22:32:41.309Z,100828.41
2023-03-21T22:35:09.063Z,100826.31
2023-03-21T22:37:38.318Z,100830.19
2023-03-21T22:40:10.537Z,100830.22
2023-03-21T22:42:38.076Z,100835.88
2023-03-21T22:45:06.191Z,100836.53
2023-03-21T22:47:33.025Z,100834.78
2023-03-21T22:49:59.816Z,100833.31
2023-03-21T22:52:27.054Z,100831.88
2023-03-21T22:54:54.855Z,100835.09
2023-03-21T22:57:21.546Z,100835.59
2023-03-21T22:59:48.355Z,100840.25
2023-03-21T23:02:15.656Z,100834.75
2023-03-21T23:04:42.724Z,100835.25
2023-03-21T23:07:09.473Z,100825.63
2023-03-21T23:09:36.344Z,100830.38
2023-03-21T23:12:02.999Z,100833.47
2023-03-21T23:14:29.668Z,100826.22
2023-03-21T23:17:00.251Z,100830.09
2023-03-21T23:19:28.789Z,100829.94
2023-03-21T23:21:56.000Z,100827.47
2023-03-21T23:24:23.057Z,100825.22
2023-03-21T23:26:49.546Z,100821.34
2023-03-21T23:29:16.037Z,100818.66
2023-03-21T23:31:42.544Z,100826.50
2023-03-21T23:34:09.210Z,100825.59
2023-03-21T23:36:35.830Z,100829.38
2023-03-21T23:39:02.400Z,100827.78
2023-03-21T23:41:28.893Z,100825.50
2023-03-21T23:43:55.710Z,100830.66
2023-03-21T23:46:22.342Z,100832.94
2023-03-21T23:48:49.193Z,100836.06
2023-03-21T23:51:17.473Z,100832.09
2023-03-21T23:53:45.793Z,100837.13
2023-03-21T23:56:24.834Z,100827.34
2023-03-21T23:58:51.915Z,100825.03
